createdAt,value
2022-12-23T00:28:17.313Z,101099.66
2022-12-23T06:15:51.897Z,101002.78
2022-12-23T06:19:51.160Z,101019.91
2022-12-23T06:23:50.599Z,101023.03
2022-12-23T06:27:49.823Z,101029.75
2022-12-23T06:31:50.990Z,101044.81
2022-12-23T06:35:50.245Z,101043.66
2022-12-23T06:39:49.589Z,101043.25
2022-12-23T06:43:52.623Z,101035.78
2022-12-23T06:47:55.688Z,101042.44
2022-12-23T06:51:55.155Z,101043.50
2022-12-23T06:56:00.892Z,101021.47
2022-12-23T07:00:00.202Z,101026.63
2022-12-23T07:04:01.635Z,101024.56
2022-12-23T07:08:00.402Z,101045.84
2022-12-23T07:11:59.696Z,101050.84
2022-12-23T07:15:59.110Z,101040.47
2022-12-23T07:19:59.974Z,101045.66
2022-12-23T07:23:59.318Z,101041.22
2022-12-23T07:27:58.100Z,101059.34
2022-12-23T07:31:57.463Z,101055.63
2022-12-23T07:36:01.695Z,101052.84
2022-12-23T07:40:06.469Z,101056.44
2022-12-23T07:44:09.964Z,101053.97
2022-12-23T07:48:08.804Z,101054.50
2022-12-23T07:52:10.168Z,101046.75
2022-12-23T07:56:09.928Z,101045.41
2022-12-23T08:00:10.688Z,101052.38
2022-12-23T08:04:12.596Z,101044.78
2022-12-23T08:08:14.123Z,101045.94
2022-12-23T08:12:12.950Z,101045.16
2022-12-23T08:16:13.315Z,101045.72
2022-12-23T08:20:13.067Z,101053.72
2022-12-23T08:24:14.579Z,101045.00
2022-12-23T08:28:13.946Z,101035.09
2022-12-23T08:32:13.347Z,101035.00
2022-12-23T08:36:20.826Z,101040.75
2022-12-23T08:40:24.100Z,101034.19
2022-12-23T08:44:26.664Z,101026.84
2022-12-23T08:48:25.749Z,101021.22
2022-12-23T08:52:25.301Z,100998.38
2022-12-23T08:56:27.183Z,101011.50
2022-12-23T09:00:26.496Z,100998.47
2022-12-23T09:04:25.827Z,101006.06
2022-12-23T09:08:24.604Z,101008.41
2022-12-23T09:12:26.105Z,101002.75
2022-12-23T09:16:26.201Z,100998.19
2022-12-23T09:20:25.515Z,101007.94
2022-12-23T09:24:24.427Z,101010.88
2022-12-23T09:28:26.591Z,101001.00
2022-12-23T09:32:25.829Z,100997.03
2022-12-23T09:36:24.738Z,100985.56
2022-12-23T09:40:27.441Z,100989.56
2022-12-23T09:44:41.351Z,100991.25
2022-12-23T09:48:45.211Z,100988.84
2022-12-23T09:52:48.216Z,100990.72
2022-12-23T09:56:49.984Z,100984.84
2022-12-23T10:00:55.941Z,100984.25
2022-12-23T10:04:59.124Z,100981.63
2022-12-23T10:09:01.020Z,100988.59
2022-12-23T10:13:02.392Z,100980.50
2022-12-23T10:17:07.470Z,100980.94
2022-12-23T10:21:11.202Z,100971.34
2022-12-23T10:25:16.114Z,100967.91
2022-12-23T10:29:19.466Z,100964.38
2022-12-23T10:33:24.014Z,100962.97
2022-12-23T10:37:26.493Z,100965.03
2022-12-23T10:41:31.804Z,100952.66
2022-12-23T10:45:45.214Z,100949.13
2022-12-23T10:49:54.948Z,100947.03
2022-12-23T10:53:56.001Z,100954.28
2022-12-23T10:57:59.033Z,100950.31
2022-12-23T11:02:03.345Z,100951.22
2022-12-23T11:06:05.284Z,100943.97
2022-12-23T11:10:05.867Z,100944.97
2022-12-23T11:14:05.320Z,100941.47
2022-12-23T11:18:07.115Z,100945.06
2022-12-23T11:22:22.258Z,100938.44
2022-12-23T11:26:22.075Z,100943.41
2022-12-23T11:30:21.686Z,100940.16
2022-12-23T11:38:23.338Z,100934.84
2022-12-23T11:42:26.905Z,100927.78
2022-12-23T11:46:28.228Z,100918.34
2022-12-23T11:50:35.230Z,100926.78
2022-12-23T11:54:36.877Z,100922.94
2022-12-23T11:58:42.315Z,100912.22
2022-12-23T12:02:42.853Z,100908.91
2022-12-23T12:06:48.430Z,100912.97
2022-12-23T12:10:55.629Z,100915.06
2022-12-23T12:14:56.313Z,100913.59
2022-12-23T12:18:57.585Z,100915.75
2022-12-23T12:22:58.222Z,100917.63
2022-12-23T12:27:03.087Z,100911.03
2022-12-23T12:31:06.420Z,100908.72
2022-12-23T12:35:10.504Z,100914.94
2022-12-23T12:39:13.136Z,100921.94
2022-12-23T12:43:18.553Z,100917.47
2022-12-23T12:47:44.617Z,100931.53
2022-12-23T12:51:45.716Z,100931.94
2022-12-23T12:55:46.647Z,100929.88
2022-12-23T12:59:50.833Z,100929.97
2022-12-23T13:04:03.107Z,100927.19
2022-12-23T13:08:13.594Z,100924.44
2022-12-23T13:12:16.930Z,100926.38
2022-12-23T13:16:23.661Z,100933.19
2022-12-23T13:20:31.360Z,100936.69
2022-12-23T13:24:34.488Z,100936.19
2022-12-23T13:28:36.610Z,100943.31
2022-12-23T13:33:04.692Z,100944.44
2022-12-23T13:37:12.010Z,100936.72
2022-12-23T13:41:16.398Z,100929.25
2022-12-23T13:45:17.051Z,100931.31
2022-12-23T13:49:23.266Z,100935.66
2022-12-23T13:53:27.677Z,100936.50
2022-12-23T13:57:33.852Z,100939.72
2022-12-23T14:01:38.258Z,100939.75
2022-12-23T14:05:40.631Z,100934.19
2022-12-23T14:09:43.810Z,100941.41
2022-12-23T14:13:43.973Z,100937.84
2022-12-23T14:17:47.299Z,100933.66
2022-12-23T14:21:52.799Z,100936.41
2022-12-23T14:26:01.301Z,100936.44
2022-12-23T14:30:06.521Z,100934.28
2022-12-23T14:34:07.542Z,100935.31
2022-12-23T14:38:21.657Z,100937.16
2022-12-23T14:42:35.436Z,100947.06
2022-12-23T14:46:58.695Z,100944.66
2022-12-23T14:50:59.513Z,100949.88
2022-12-23T14:55:28.500Z,100953.56
2022-12-23T14:59:25.379Z,100954.28
2022-12-23T15:03:25.149Z,100948.13
2022-12-23T15:07:27.734Z,100951.03
2022-12-23T15:11:28.946Z,100962.47
2022-12-23T15:15:32.699Z,100961.38
2022-12-23T15:19:33.249Z,100963.56
2022-12-23T15:23:32.943Z,100968.06
2022-12-23T15:27:34.647Z,100970.53
2022-12-23T15:31:40.187Z,100974.19
2022-12-23T15:35:41.771Z,100973.44
2022-12-23T15:39:46.283Z,100969.34
2022-12-23T15:43:46.716Z,100960.72
2022-12-23T15:47:47.928Z,100969.38
2022-12-23T15:52:07.193Z,100969.63
2022-12-23T15:56:10.000Z,100963.47
2022-12-23T16:00:20.016Z,100972.81
2022-12-23T16:04:29.701Z,100985.88
2022-12-23T16:08:31.432Z,100980.53
2022-12-23T16:12:32.970Z,100984.84
2022-12-23T16:16:34.491Z,100982.00
2022-12-23T16:20:42.336Z,100976.72
2022-12-23T16:24:46.391Z,100976.63
2022-12-23T16:28:49.085Z,100978.97
2022-12-23T16:32:55.076Z,100981.84
2022-12-23T16:36:57.057Z,100998.03
2022-12-23T16:40:57.331Z,100987.72
2022-12-23T16:45:03.824Z,100994.16
2022-12-23T16:49:10.717Z,100997.78
2022-12-23T16:53:14.427Z,101003.88
2022-12-23T16:57:13.509Z,100996.22
2022-12-23T17:01:16.831Z,101005.59
2022-12-23T17:09:53.329Z,101005.88
2022-12-23T17:13:59.578Z,100996.22
2022-12-23T17:18:03.467Z,100997.09
2022-12-23T17:22:05.234Z,100982.41
2022-12-23T17:26:08.256Z,100983.75
2022-12-23T17:30:09.319Z,100997.19
2022-12-23T17:34:17.280Z,100996.47
2022-12-23T17:38:18.116Z,100994.06
2022-12-23T17:42:25.840Z,101002.31
2022-12-23T17:46:29.148Z,101003.72
2022-12-23T17:50:29.198Z,100998.00
2022-12-23T17:54:29.325Z,100990.13
2022-12-23T17:58:33.408Z,100990.03
2022-12-23T18:02:35.299Z,100990.78
2022-12-23T18:06:36.746Z,100992.06
2022-12-23T18:10:39.401Z,100997.03
2022-12-23T18:14:41.166Z,100997.03
2022-12-23T18:18:46.330Z,101003.94
2022-12-23T18:22:47.892Z,101010.25
2022-12-23T18:26:51.959Z,101024.34
2022-12-23T18:30:57.386Z,101023.25
2022-12-23T18:34:58.641Z,101026.72
2022-12-23T18:39:11.863Z,101024.47
2022-12-23T18:43:22.698Z,101028.59
2022-12-23T18:47:24.532Z,101029.41
2022-12-23T18:51:26.583Z,101029.38
2022-12-23T18:55:33.531Z,101035.03
2022-12-23T18:59:38.216Z,101023.66
2022-12-23T19:03:45.127Z,101018.56
2022-12-23T19:07:45.206Z,101010.22
2022-12-23T19:11:45.474Z,101014.44
2022-12-23T19:15:45.312Z,101025.75
2022-12-23T19:19:46.794Z,101024.50
2022-12-23T19:23:46.166Z,101013.81
2022-12-23T19:27:46.003Z,101022.97
2022-12-23T19:31:44.777Z,101016.38
2022-12-23T19:35:48.837Z,101009.66
2022-12-23T19:39:49.793Z,101023.25
2022-12-23T19:43:50.357Z,101009.53
2022-12-23T19:47:53.504Z,101006.63
2022-12-23T19:52:05.022Z,101008.16
2022-12-23T19:56:06.645Z,101003.19
2022-12-23T20:00:11.570Z,100993.81
2022-12-23T20:04:14.084Z,100988.94
2022-12-23T20:08:17.641Z,100978.34
2022-12-23T20:12:17.649Z,100979.06
2022-12-23T20:16:20.284Z,100976.94
2022-12-23T20:20:20.547Z,100987.59
2022-12-23T20:24:26.631Z,100979.44
2022-12-23T20:28:27.905Z,100982.47
2022-12-23T20:32:28.752Z,100983.22
2022-12-23T20:36:34.782Z,100992.09
2022-12-23T20:40:55.502Z,100990.56
2022-12-23T20:45:00.123Z,100988.53
2022-12-23T20:49:18.335Z,100990.69
2022-12-23T20:53:35.170Z,100994.88
2022-12-23T20:57:57.364Z,100991.19
2022-12-23T21:02:10.558Z,101000.81
2022-12-23T21:06:14.136Z,101006.16
2022-12-23T21:10:28.399Z,100996.56
2022-12-23T21:14:38.048Z,100991.41
2022-12-23T21:18:42.304Z,100983.66
2022-12-23T21:22:43.685Z,100981.50
2022-12-23T21:26:50.251Z,100987.91
2022-12-23T21:30:54.316Z,100986.31
2022-12-23T21:35:01.338Z,100974.66
2022-12-23T21:39:01.557Z,100967.41
2022-12-23T21:43:08.344Z,100971.25
2022-12-23T21:47:11.941Z,100961.59
2022-12-23T21:51:15.050Z,100970.50
2022-12-23T21:55:15.772Z,100964.31
2022-12-23T21:59:17.096Z,100969.94
2022-12-23T22:03:20.459Z,100967.66
2022-12-23T22:07:21.443Z,100958.09
2022-12-23T22:11:23.002Z,100959.78
2022-12-23T22:15:24.202Z,100956.53
2022-12-23T22:19:28.151Z,100954.72
2022-12-23T22:23:28.075Z,100950.69
2022-12-23T22:27:29.216Z,100956.81
2022-12-23T22:31:33.699Z,100957.84
2022-12-23T22:35:35.872Z,100949.03
2022-12-23T22:39:34.828Z,100957.72
2022-12-23T22:43:34.737Z,100953.28
2022-12-23T22:47:34.966Z,100961.91
2022-12-23T22:51:38.025Z,100957.25
2022-12-23T22:55:37.781Z,100955.03
2022-12-23T22:59:38.226Z,100949.06
2022-12-23T23:03:37.970Z,100961.81
2022-12-23T23:07:39.414Z,100953.22
2022-12-23T23:11:39.539Z,100950.97
2022-12-23T23:15:38.908Z,100951.69
2022-12-23T23:19:38.637Z,100944.78
2022-12-23T23:23:40.455Z,100951.44
2022-12-23T23:27:39.325Z,100940.91
2022-12-23T23:31:42.365Z,100937.63
2022-12-23T23:35:42.457Z,100943.22
2022-12-23T23:39:44.519Z,100938.81
2022-12-23T23:43:44.550Z,100935.66
2022-12-23T23:47:43.721Z,100933.75
2022-12-23T23:51:43.461Z,100930.31
2022-12-23T23:55:45.841Z,100940.19
2022-12-23T23:59:44.956Z,100949.69
